sensor_id;sensor_type;location;lat;lon;timestamp;pressure;altitude;pressure_sealevel;temperature;humidity
42519;BME280;28147;47.520;18.920;2023-09-07T00:00:59;99164.81;;;23.98;38.36
42519;BME280;28147;47.520;18.920;2023-09-07T00:03:26;99158.06;;;24.23;37.71
42519;BME280;28147;47.520;18.920;2023-09-07T00:05:51;99161.28;;;24.25;37.95
42519;BME280;28147;47.520;18.920;2023-09-07T00:08:17;99160.19;;;24.26;37.74
42519;BME280;28147;47.520;18.920;2023-09-07T00:10:42;99162.69;;;24.36;37.55
42519;BME280;28147;47.520;18.920;2023-09-07T00:13:08;99161.16;;;24.30;37.71
42519;BME280;28147;47.520;18.920;2023-09-07T00:15:38;99161.38;;;24.34;37.47
42519;BME280;28147;47.520;18.920;2023-09-07T00:18:04;99158.25;;;24.13;37.92
42519;BME280;28147;47.520;18.920;2023-09-07T00:20:29;99163.91;;;24.16;38.01
42519;BME280;28147;47.520;18.920;2023-09-07T00:22:55;99159.47;;;24.20;38.12
42519;BME280;28147;47.520;18.920;2023-09-07T00:25:20;99163.56;;;24.32;37.67
42519;BME280;28147;47.520;18.920;2023-09-07T00:27:46;99155.44;;;24.18;38.20
42519;BME280;28147;47.520;18.920;2023-09-07T00:30:11;99164.31;;;24.23;38.26
42519;BME280;28147;47.520;18.920;2023-09-07T00:32:37;99156.72;;;24.34;37.95
42519;BME280;28147;47.520;18.920;2023-09-07T00:35:04;99145.84;;;24.20;38.22
42519;BME280;28147;47.520;18.920;2023-09-07T00:37:30;99152.84;;;23.99;38.48
42519;BME280;28147;47.520;18.920;2023-09-07T00:39:56;99149.22;;;24.03;38.68
42519;BME280;28147;47.520;18.920;2023-09-07T00:42:21;99155.38;;;23.95;38.65
42519;BME280;28147;47.520;18.920;2023-09-07T00:44:47;99155.47;;;23.90;38.50
42519;BME280;28147;47.520;18.920;2023-09-07T00:47:14;99154.06;;;24.07;38.08
42519;BME280;28147;47.520;18.920;2023-09-07T00:49:39;99151.22;;;23.98;38.63
42519;BME280;28147;47.520;18.920;2023-09-07T00:52:05;99160.72;;;23.87;38.62
42519;BME280;28147;47.520;18.920;2023-09-07T00:54:33;99158.69;;;24.06;38.01
42519;BME280;28147;47.520;18.920;2023-09-07T00:56:59;99150.81;;;24.04;38.50
42519;BME280;28147;47.520;18.920;2023-09-07T00:59:25;99155.25;;;24.00;38.71
42519;BME280;28147;47.520;18.920;2023-09-07T01:01:50;99157.59;;;23.79;39.21
42519;BME280;28147;47.520;18.920;2023-09-07T01:04:15;99154.09;;;23.46;40.46
42519;BME280;28147;47.520;18.920;2023-09-07T01:06:55;99152.16;;;23.33;40.95
42519;BME280;28147;47.520;18.920;2023-09-07T01:09:24;99158.06;;;23.21;41.50
42519;BME280;28147;47.520;18.920;2023-09-07T01:11:51;99156.94;;;23.09;42.01
42519;BME280;28147;47.520;18.920;2023-09-07T01:14:18;99145.75;;;22.96;41.79
42519;BME280;28147;47.520;18.920;2023-09-07T01:16:43;99154.97;;;22.95;42.08
42519;BME280;28147;47.520;18.920;2023-09-07T01:19:09;99149.84;;;22.94;41.74
42519;BME280;28147;47.520;18.920;2023-09-07T01:21:38;99149.31;;;22.92;41.89
42519;BME280;28147;47.520;18.920;2023-09-07T01:24:08;99154.38;;;22.98;41.66
42519;BME280;28147;47.520;18.920;2023-09-07T01:26:35;99145.97;;;23.00;40.94
42519;BME280;28147;47.520;18.920;2023-09-07T01:29:04;99145.38;;;23.17;40.42
42519;BME280;28147;47.520;18.920;2023-09-07T01:31:30;99153.84;;;23.15;40.37
42519;BME280;28147;47.520;18.920;2023-09-07T01:33:55;99159.13;;;23.06;40.55
42519;BME280;28147;47.520;18.920;2023-09-07T01:36:21;99140.13;;;23.06;40.38
42519;BME280;28147;47.520;18.920;2023-09-07T01:38:47;99139.84;;;23.22;40.09
42519;BME280;28147;47.520;18.920;2023-09-07T01:41:13;99149.53;;;23.28;40.10
42519;BME280;28147;47.520;18.920;2023-09-07T01:43:38;99151.06;;;23.34;39.54
42519;BME280;28147;47.520;18.920;2023-09-07T01:46:04;99152.78;;;23.30;40.04
42519;BME280;28147;47.520;18.920;2023-09-07T01:48:29;99145.13;;;23.32;39.99
42519;BME280;28147;47.520;18.920;2023-09-07T01:50:54;99153.06;;;23.28;40.19
42519;BME280;28147;47.520;18.920;2023-09-07T01:53:20;99158.38;;;23.20;40.33
42519;BME280;28147;47.520;18.920;2023-09-07T01:55:46;99155.03;;;23.09;40.23
42519;BME280;28147;47.520;18.920;2023-09-07T01:58:12;99147.09;;;23.13;40.39
42519;BME280;28147;47.520;18.920;2023-09-07T02:00:38;99147.66;;;22.96;40.63
42519;BME280;28147;47.520;18.920;2023-09-07T02:03:06;99153.59;;;22.98;41.02
42519;BME280;28147;47.520;18.920;2023-09-07T02:05:32;99153.44;;;22.89;41.11
42519;BME280;28147;47.520;18.920;2023-09-07T02:07:58;99152.59;;;23.40;39.48
42519;BME280;28147;47.520;18.920;2023-09-07T02:10:23;99157.47;;;22.92;40.71
42519;BME280;28147;47.520;18.920;2023-09-07T02:12:49;99153.78;;;23.01;40.30
42519;BME280;28147;47.520;18.920;2023-09-07T02:15:14;99157.03;;;22.85;40.98
42519;BME280;28147;47.520;18.920;2023-09-07T02:17:39;99163.31;;;22.80;40.80
42519;BME280;28147;47.520;18.920;2023-09-07T02:20:05;99159.59;;;22.76;40.79
42519;BME280;28147;47.520;18.920;2023-09-07T02:22:35;99163.41;;;22.75;40.82
42519;BME280;28147;47.520;18.920;2023-09-07T02:25:01;99162.31;;;22.76;40.85
42519;BME280;28147;47.520;18.920;2023-09-07T02:27:26;99160.03;;;22.83;40.95
42519;BME280;28147;47.520;18.920;2023-09-07T02:29:51;99160.41;;;22.76;40.62
42519;BME280;28147;47.520;18.920;2023-09-07T02:32:17;99159.59;;;22.95;40.20
42519;BME280;28147;47.520;18.920;2023-09-07T02:34:42;99156.81;;;22.81;40.54
42519;BME280;28147;47.520;18.920;2023-09-07T02:37:08;99158.53;;;22.96;40.46
42519;BME280;28147;47.520;18.920;2023-09-07T02:39:33;99158.84;;;22.89;39.83
42519;BME280;28147;47.520;18.920;2023-09-07T02:41:59;99153.38;;;22.94;39.89
42519;BME280;28147;47.520;18.920;2023-09-07T02:44:24;99160.13;;;22.97;40.01
42519;BME280;28147;47.520;18.920;2023-09-07T02:46:50;99164.97;;;22.81;40.67
42519;BME280;28147;47.520;18.920;2023-09-07T02:49:15;99164.66;;;22.82;40.27
42519;BME280;28147;47.520;18.920;2023-09-07T02:51:40;99160.72;;;22.94;40.11
42519;BME280;28147;47.520;18.920;2023-09-07T02:54:06;99161.03;;;22.92;40.16
42519;BME280;28147;47.520;18.920;2023-09-07T02:56:31;99164.13;;;22.80;40.47
42519;BME280;28147;47.520;18.920;2023-09-07T02:58:56;99166.47;;;22.87;39.83
42519;BME280;28147;47.520;18.920;2023-09-07T03:01:22;99166.03;;;22.80;40.17
42519;BME280;28147;47.520;18.920;2023-09-07T03:03:47;99160.84;;;22.65;40.29
42519;BME280;28147;47.520;18.920;2023-09-07T03:06:14;99164.59;;;22.69;40.16
42519;BME280;28147;47.520;18.920;2023-09-07T03:08:42;99169.28;;;22.82;39.82
42519;BME280;28147;47.520;18.920;2023-09-07T03:11:08;99169.16;;;22.92;39.54
42519;BME280;28147;47.520;18.920;2023-09-07T03:13:34;99159.91;;;22.93;39.30
42519;BME280;28147;47.520;18.920;2023-09-07T03:16:00;99159.53;;;23.00;39.17
42519;BME280;28147;47.520;18.920;2023-09-07T03:18:25;99162.16;;;23.05;38.83
42519;BME280;28147;47.520;18.920;2023-09-07T03:20:53;99164.22;;;22.94;39.13
42519;BME280;28147;47.520;18.920;2023-09-07T03:23:19;99164.28;;;23.08;38.89
42519;BME280;28147;47.520;18.920;2023-09-07T03:25:45;99158.84;;;23.08;38.63
42519;BME280;28147;47.520;18.920;2023-09-07T03:28:10;99170.25;;;22.91;38.75
42519;BME280;28147;47.520;18.920;2023-09-07T03:30:36;99156.16;;;22.89;38.90
42519;BME280;28147;47.520;18.920;2023-09-07T03:33:01;99159.53;;;23.00;38.96
42519;BME280;28147;47.520;18.920;2023-09-07T03:35:28;99162.53;;;22.98;38.81
42519;BME280;28147;47.520;18.920;2023-09-07T03:37:54;99166.31;;;23.16;38.27
42519;BME280;28147;47.520;18.920;2023-09-07T03:40:20;99161.34;;;23.04;38.39
42519;BME280;28147;47.520;18.920;2023-09-07T03:42:45;99160.13;;;22.97;38.78
42519;BME280;28147;47.520;18.920;2023-09-07T03:45:11;99156.75;;;22.67;39.19
42519;BME280;28147;47.520;18.920;2023-09-07T03:47:37;99169.28;;;22.82;38.97
42519;BME280;28147;47.520;18.920;2023-09-07T03:50:04;99169.56;;;22.80;39.00
42519;BME280;28147;47.520;18.920;2023-09-07T03:52:29;99158.06;;;22.70;38.92
42519;BME280;28147;47.520;18.920;2023-09-07T03:54:55;99157.78;;;22.71;39.09
42519;BME280;28147;47.520;18.920;2023-09-07T03:57:21;99165.41;;;22.88;38.84
42519;BME280;28147;47.520;18.920;2023-09-07T03:59:47;99172.59;;;22.98;38.80
42519;BME280;28147;47.520;18.920;2023-09-07T04:02:13;99169.97;;;22.93;38.64
42519;BME280;28147;47.520;18.920;2023-09-07T04:04:38;99169.66;;;22.94;38.33
42519;BME280;28147;47.520;18.920;2023-09-07T04:07:04;99168.47;;;23.00;38.65
42519;BME280;28147;47.520;18.920;2023-09-07T04:09:30;99168.75;;;22.80;39.10
42519;BME280;28147;47.520;18.920;2023-09-07T04:11:56;99169.28;;;22.82;39.05
42519;BME280;28147;47.520;18.920;2023-09-07T04:14:21;99171.56;;;22.94;38.33
42519;BME280;28147;47.520;18.920;2023-09-07T04:16:46;99170.31;;;22.86;38.45
42519;BME280;28147;47.520;18.920;2023-09-07T04:19:12;99175.06;;;22.75;38.85
42519;BME280;28147;47.520;18.920;2023-09-07T04:21:37;99175.59;;;22.77;38.86
42519;BME280;28147;47.520;18.920;2023-09-07T04:24:04;99183.13;;;22.80;38.92
42519;BME280;28147;47.520;18.920;2023-09-07T04:26:29;99176.63;;;22.81;38.97
42519;BME280;28147;47.520;18.920;2023-09-07T04:28:55;99176.47;;;22.73;39.40
42519;BME280;28147;47.520;18.920;2023-09-07T04:31:22;99177.13;;;22.83;39.26
42519;BME280;28147;47.520;18.920;2023-09-07T04:33:49;99183.56;;;22.88;39.09
42519;BME280;28147;47.520;18.920;2023-09-07T04:36:15;99186.28;;;22.88;39.13
42519;BME280;28147;47.520;18.920;2023-09-07T04:38:41;99187.53;;;22.76;39.05
42519;BME280;28147;47.520;18.920;2023-09-07T04:41:10;99180.81;;;22.93;38.75
42519;BME280;28147;47.520;18.920;2023-09-07T04:43:37;99179.09;;;23.16;38.40
42519;BME280;28147;47.520;18.920;2023-09-07T04:46:05;99173.22;;;23.41;39.14
42519;BME280;28147;47.520;18.920;2023-09-07T04:48:32;99172.06;;;23.61;38.01
42519;BME280;28147;47.520;18.920;2023-09-07T04:51:01;99181.44;;;23.69;37.43
42519;BME280;28147;47.520;18.920;2023-09-07T04:53:29;99180.63;;;23.82;37.86
42519;BME280;28147;47.520;18.920;2023-09-07T04:55:56;99178.03;;;24.04;37.48
42519;BME280;28147;47.520;18.920;2023-09-07T04:58:21;99180.34;;;24.25;36.78
42519;BME280;28147;47.520;18.920;2023-09-07T05:00:47;99180.34;;;24.25;37.20
42519;BME280;28147;47.520;18.920;2023-09-07T05:03:13;99183.94;;;24.34;36.89
42519;BME280;28147;47.520;18.920;2023-09-07T05:05:38;99187.69;;;24.52;37.33
42519;BME280;28147;47.520;18.920;2023-09-07T05:08:04;99186.56;;;24.53;37.02
42519;BME280;28147;47.520;18.920;2023-09-07T05:10:33;99187.06;;;24.55;37.10
42519;BME280;28147;47.520;18.920;2023-09-07T05:12:59;99193.72;;;24.63;37.38
42519;BME280;28147;47.520;18.920;2023-09-07T05:15:24;99185.41;;;24.68;37.18
42519;BME280;28147;47.520;18.920;2023-09-07T05:17:50;99197.06;;;24.82;36.92
42519;BME280;28147;47.520;18.920;2023-09-07T05:20:16;99197.97;;;25.14;36.66
42519;BME280;28147;47.520;18.920;2023-09-07T05:22:42;99199.47;;;25.20;36.87
42519;BME280;28147;47.520;18.920;2023-09-07T05:25:07;99197.63;;;25.38;36.12
42519;BME280;28147;47.520;18.920;2023-09-07T05:27:34;99193.19;;;25.73;36.17
42519;BME280;28147;47.520;18.920;2023-09-07T05:30:00;99194.16;;;25.77;35.75
42519;BME280;28147;47.520;18.920;2023-09-07T05:32:25;99199.88;;;25.98;35.37
42519;BME280;28147;47.520;18.920;2023-09-07T05:34:51;99199.66;;;26.26;34.33
42519;BME280;28147;47.520;18.920;2023-09-07T05:37:16;99203.38;;;26.38;34.35
42519;BME280;28147;47.520;18.920;2023-09-07T05:39:42;99205.84;;;26.49;33.60
42519;BME280;28147;47.520;18.920;2023-09-07T05:42:07;99206.91;;;26.39;33.84
42519;BME280;28147;47.520;18.920;2023-09-07T05:44:33;99203.13;;;26.66;33.51
42519;BME280;28147;47.520;18.920;2023-09-07T05:46:58;99207.78;;;26.57;34.04
42519;BME280;28147;47.520;18.920;2023-09-07T05:49:24;99207.78;;;26.57;34.07
42519;BME280;28147;47.520;18.920;2023-09-07T05:51:49;99201.63;;;26.42;34.40
42519;BME280;28147;47.520;18.920;2023-09-07T05:54:15;99209.06;;;26.85;33.80
42519;BME280;28147;47.520;18.920;2023-09-07T05:56:40;99206.50;;;26.98;34.20
42519;BME280;28147;47.520;18.920;2023-09-07T05:59:05;99208.59;;;26.83;33.98
42519;BME280;28147;47.520;18.920;2023-09-07T06:01:31;99215.66;;;26.84;33.42
42519;BME280;28147;47.520;18.920;2023-09-07T06:03:58;99217.44;;;27.06;34.01
42519;BME280;28147;47.520;18.920;2023-09-07T06:06:24;99214.06;;;27.18;33.99
42519;BME280;28147;47.520;18.920;2023-09-07T06:08:49;99221.78;;;27.16;34.46
42519;BME280;28147;47.520;18.920;2023-09-07T06:11:15;99226.09;;;27.34;34.31
42519;BME280;28147;47.520;18.920;2023-09-07T06:13:41;99224.38;;;27.21;33.80
42519;BME280;28147;47.520;18.920;2023-09-07T06:16:07;99222.03;;;27.49;33.22
42519;BME280;28147;47.520;18.920;2023-09-07T06:18:32;99215.59;;;27.54;33.46
42519;BME280;28147;47.520;18.920;2023-09-07T06:20:58;99226.84;;;27.61;33.51
42519;BME280;28147;47.520;18.920;2023-09-07T06:23:23;99228.16;;;27.55;33.41
42519;BME280;28147;47.520;18.920;2023-09-07T06:25:49;99224.66;;;27.02;34.05
42519;BME280;28147;47.520;18.920;2023-09-07T06:28:14;99214.84;;;27.27;33.51
42519;BME280;28147;47.520;18.920;2023-09-07T06:30:40;99218.47;;;27.66;34.46
42519;BME280;28147;47.520;18.920;2023-09-07T06:33:05;99227.19;;;26.55;34.45
42519;BME280;28147;47.520;18.920;2023-09-07T06:35:30;99233.69;;;27.11;34.63
42519;BME280;28147;47.520;18.920;2023-09-07T06:37:56;99238.31;;;27.37;33.26
42519;BME280;28147;47.520;18.920;2023-09-07T06:40:22;99238.84;;;27.13;33.77
42519;BME280;28147;47.520;18.920;2023-09-07T06:42:47;99237.03;;;26.91;34.44
42519;BME280;28147;47.520;18.920;2023-09-07T06:45:12;99238.16;;;26.99;34.41
42519;BME280;28147;47.520;18.920;2023-09-07T06:47:39;99229.16;;;26.63;34.27
42519;BME280;28147;47.520;18.920;2023-09-07T06:50:05;99229.47;;;27.31;33.85
42519;BME280;28147;47.520;18.920;2023-09-07T06:52:31;99238.09;;;26.47;34.13
42519;BME280;28147;47.520;18.920;2023-09-07T06:54:56;99237.09;;;26.34;34.42
42519;BME280;28147;47.520;18.920;2023-09-07T06:57:21;99241.69;;;26.82;34.21
42519;BME280;28147;47.520;18.920;2023-09-07T06:59:47;99238.31;;;26.85;34.19
42519;BME280;28147;47.520;18.920;2023-09-07T07:02:13;99244.91;;;27.45;34.71
42519;BME280;28147;47.520;18.920;2023-09-07T07:04:39;99239.94;;;26.86;34.25
42519;BME280;28147;47.520;18.920;2023-09-07T07:07:04;99244.41;;;26.56;34.72
42519;BME280;28147;47.520;18.920;2023-09-07T07:09:31;99251.97;;;26.67;34.23
42519;BME280;28147;47.520;18.920;2023-09-07T07:11:58;99246.81;;;26.57;34.77
42519;BME280;28147;47.520;18.920;2023-09-07T07:14:24;99251.19;;;27.02;34.02
42519;BME280;28147;47.520;18.920;2023-09-07T07:16:49;99247.66;;;27.19;34.91
42519;BME280;28147;47.520;18.920;2023-09-07T07:19:15;99248.28;;;26.72;34.95
42519;BME280;28147;47.520;18.920;2023-09-07T07:21:40;99249.53;;;26.66;34.85
42519;BME280;28147;47.520;18.920;2023-09-07T07:24:05;99257.81;;;26.35;35.20
42519;BME280;28147;47.520;18.920;2023-09-07T07:26:34;99249.53;;;26.49;35.34
42519;BME280;28147;47.520;18.920;2023-09-07T07:28:59;99254.06;;;26.79;34.95
42519;BME280;28147;47.520;18.920;2023-09-07T07:31:25;99248.50;;;27.28;35.48
42519;BME280;28147;47.520;18.920;2023-09-07T07:33:50;99259.88;;;27.04;34.62
42519;BME280;28147;47.520;18.920;2023-09-07T07:36:16;99256.16;;;26.91;34.79
42519;BME280;28147;47.520;18.920;2023-09-07T07:38:41;99256.31;;;26.77;34.90
42519;BME280;28147;47.520;18.920;2023-09-07T07:41:07;99254.53;;;26.64;35.47
42519;BME280;28147;47.520;18.920;2023-09-07T07:43:33;99253.91;;;27.10;35.51
42519;BME280;28147;47.520;18.920;2023-09-07T07:45:59;99244.28;;;26.96;34.92
42519;BME280;28147;47.520;18.920;2023-09-07T07:48:24;99256.84;;;27.14;35.40
42519;BME280;28147;47.520;18.920;2023-09-07T07:50:50;99249.09;;;27.07;35.64
42519;BME280;28147;47.520;18.920;2023-09-07T07:53:15;99254.56;;;26.90;35.10
42519;BME280;28147;47.520;18.920;2023-09-07T07:55:41;99255.50;;;27.63;35.25
42519;BME280;28147;47.520;18.920;2023-09-07T07:58:07;99254.75;;;27.20;34.63
42519;BME280;28147;47.520;18.920;2023-09-07T08:00:34;99246.88;;;27.35;34.40
42519;BME280;28147;47.520;18.920;2023-09-07T08:03:01;99255.91;;;27.92;33.53
42519;BME280;28147;47.520;18.920;2023-09-07T08:05:28;99255.50;;;28.49;33.58
42519;BME280;28147;47.520;18.920;2023-09-07T08:07:54;99253.19;;;28.30;33.74
42519;BME280;28147;47.520;18.920;2023-09-07T08:10:19;99251.38;;;28.43;33.62
42519;BME280;28147;47.520;18.920;2023-09-07T08:12:45;99256.94;;;28.55;33.12
42519;BME280;28147;47.520;18.920;2023-09-07T08:15:10;99256.00;;;28.51;33.36
42519;BME280;28147;47.520;18.920;2023-09-07T08:17:36;99252.09;;;29.23;32.38
42519;BME280;28147;47.520;18.920;2023-09-07T08:20:01;99257.09;;;28.79;32.57
42519;BME280;28147;47.520;18.920;2023-09-07T08:22:28;99253.16;;;28.89;32.42
42519;BME280;28147;47.520;18.920;2023-09-07T08:24:54;99256.09;;;29.05;32.09
42519;BME280;28147;47.520;18.920;2023-09-07T08:27:20;99258.22;;;29.41;32.11
42519;BME280;28147;47.520;18.920;2023-09-07T08:29:46;99251.09;;;29.61;31.16
42519;BME280;28147;47.520;18.920;2023-09-07T08:32:17;99260.91;;;29.29;31.08
42519;BME280;28147;47.520;18.920;2023-09-07T08:34:42;99254.44;;;28.92;32.36
42519;BME280;28147;47.520;18.920;2023-09-07T08:37:08;99254.78;;;29.11;31.98
42519;BME280;28147;47.520;18.920;2023-09-07T08:39:36;99246.63;;;29.36;31.45
42519;BME280;28147;47.520;18.920;2023-09-07T08:42:04;99254.16;;;30.05;30.98
42519;BME280;28147;47.520;18.920;2023-09-07T08:44:32;99242.22;;;29.76;29.79
42519;BME280;28147;47.520;18.920;2023-09-07T08:46:59;99241.19;;;30.79;29.74
42519;BME280;28147;47.520;18.920;2023-09-07T08:49:25;99240.97;;;30.60;29.75
42519;BME280;28147;47.520;18.920;2023-09-07T08:51:51;99239.94;;;30.89;28.80
42519;BME280;28147;47.520;18.920;2023-09-07T08:54:17;99237.06;;;31.13;28.05
42519;BME280;28147;47.520;18.920;2023-09-07T08:56:45;99243.25;;;30.70;27.47
42519;BME280;28147;47.520;18.920;2023-09-07T08:59:10;99243.25;;;29.84;29.69
42519;BME280;28147;47.520;18.920;2023-09-07T09:01:36;99240.38;;;29.68;30.48
42519;BME280;28147;47.520;18.920;2023-09-07T09:04:02;99235.50;;;29.86;29.14
42519;BME280;28147;47.520;18.920;2023-09-07T09:06:27;99236.53;;;30.06;29.86
42519;BME280;28147;47.520;18.920;2023-09-07T09:08:56;99240.44;;;30.05;28.65
42519;BME280;28147;47.520;18.920;2023-09-07T09:11:23;99228.53;;;30.01;30.10
42519;BME280;28147;47.520;18.920;2023-09-07T09:13:50;99236.53;;;29.81;29.66
42519;BME280;28147;47.520;18.920;2023-09-07T09:16:15;99229.91;;;30.32;28.88
42519;BME280;28147;47.520;18.920;2023-09-07T09:18:56;99219.06;;;31.16;28.55
42519;BME280;28147;47.520;18.920;2023-09-07T09:21:23;99229.88;;;31.09;27.09
42519;BME280;28147;47.520;18.920;2023-09-07T09:23:53;99225.81;;;30.90;26.88
42519;BME280;28147;47.520;18.920;2023-09-07T09:26:20;99226.53;;;31.15;27.67
42519;BME280;28147;47.520;18.920;2023-09-07T09:28:46;99232.59;;;31.65;27.29
42519;BME280;28147;47.520;18.920;2023-09-07T09:31:12;99235.88;;;30.98;27.38
42519;BME280;28147;47.520;18.920;2023-09-07T09:33:48;99232.63;;;31.09;26.53
42519;BME280;28147;47.520;18.920;2023-09-07T09:36:16;99228.56;;;31.31;27.71
42519;BME280;28147;47.520;18.920;2023-09-07T09:38:47;99221.50;;;31.45;26.84
42519;BME280;28147;47.520;18.920;2023-09-07T09:41:19;99232.41;;;32.02;26.56
42519;BME280;28147;47.520;18.920;2023-09-07T09:43:48;99231.84;;;31.08;27.41
42519;BME280;28147;47.520;18.920;2023-09-07T09:46:17;99228.13;;;31.88;26.29
42519;BME280;28147;47.520;18.920;2023-09-07T09:48:43;99223.84;;;31.75;26.22
42519;BME280;28147;47.520;18.920;2023-09-07T09:51:10;99219.13;;;31.76;27.60
42519;BME280;28147;47.520;18.920;2023-09-07T09:53:36;99219.47;;;32.21;26.56
42519;BME280;28147;47.520;18.920;2023-09-07T09:56:01;99216.53;;;32.30;26.70
42519;BME280;28147;47.520;18.920;2023-09-07T09:58:27;99219.06;;;31.44;26.80
42519;BME280;28147;47.520;18.920;2023-09-07T10:00:55;99230.28;;;31.23;26.83
42519;BME280;28147;47.520;18.920;2023-09-07T10:03:37;99225.66;;;31.55;26.58
42519;BME280;28147;47.520;18.920;2023-09-07T10:06:17;99222.56;;;32.52;26.35
42519;BME280;28147;47.520;18.920;2023-09-07T10:08:57;99221.56;;;31.21;28.01
42519;BME280;28147;47.520;18.920;2023-09-07T10:11:33;99224.31;;;32.60;27.69
42519;BME280;28147;47.520;18.920;2023-09-07T10:14:01;99216.84;;;32.60;27.20
42519;BME280;28147;47.520;18.920;2023-09-07T10:16:28;99218.25;;;33.28;25.48
42519;BME280;28147;47.520;18.920;2023-09-07T10:18:54;99220.91;;;33.44;25.90
42519;BME280;28147;47.520;18.920;2023-09-07T10:21:23;99210.75;;;32.70;25.56
42519;BME280;28147;47.520;18.920;2023-09-07T10:23:51;99216.41;;;32.58;25.09
42519;BME280;28147;47.520;18.920;2023-09-07T10:26:18;99225.19;;;31.97;25.31
42519;BME280;28147;47.520;18.920;2023-09-07T10:28:44;99218.31;;;33.32;24.47
42519;BME280;28147;47.520;18.920;2023-09-07T10:31:15;99219.94;;;32.94;25.22
42519;BME280;28147;47.520;18.920;2023-09-07T10:33:41;99217.56;;;31.90;25.15
42519;BME280;28147;47.520;18.920;2023-09-07T10:36:06;99212.47;;;31.92;25.63
42519;BME280;28147;47.520;18.920;2023-09-07T10:38:35;99205.59;;;32.34;24.89
42519;BME280;28147;47.520;18.920;2023-09-07T10:41:03;99200.34;;;32.44;25.29
42519;BME280;28147;47.520;18.920;2023-09-07T10:43:30;99194.38;;;32.42;24.92
42519;BME280;28147;47.520;18.920;2023-09-07T10:45:57;99200.66;;;31.60;25.56
42519;BME280;28147;47.520;18.920;2023-09-07T10:48:28;99197.44;;;31.58;25.82
42519;BME280;28147;47.520;18.920;2023-09-07T10:50:54;99199.44;;;32.05;25.41
42519;BME280;28147;47.520;18.920;2023-09-07T10:53:27;99192.03;;;32.80;25.06
42519;BME280;28147;47.520;18.920;2023-09-07T10:55:53;99188.88;;;33.39;25.23
42519;BME280;28147;47.520;18.920;2023-09-07T10:58:25;99187.75;;;33.63;24.45
42519;BME280;28147;47.520;18.920;2023-09-07T11:00:55;99187.63;;;33.56;24.12
42519;BME280;28147;47.520;18.920;2023-09-07T11:03:21;99188.44;;;32.40;24.06
42519;BME280;28147;47.520;18.920;2023-09-07T11:05:47;99185.94;;;32.35;23.79
42519;BME280;28147;47.520;18.920;2023-09-07T11:08:13;99182.81;;;32.37;23.73
42519;BME280;28147;47.520;18.920;2023-09-07T11:10:39;99176.22;;;32.06;24.33
42519;BME280;28147;47.520;18.920;2023-09-07T11:13:05;99180.56;;;31.76;24.80
42519;BME280;28147;47.520;18.920;2023-09-07T11:15:31;99176.91;;;31.12;25.02
42519;BME280;28147;47.520;18.920;2023-09-07T11:17:57;99176.06;;;31.67;25.12
42519;BME280;28147;47.520;18.920;2023-09-07T11:20:23;99172.50;;;31.98;24.97
42519;BME280;28147;47.520;18.920;2023-09-07T11:22:50;99173.09;;;31.16;24.91
42519;BME280;28147;47.520;18.920;2023-09-07T11:25:15;99168.84;;;31.47;25.22
42519;BME280;28147;47.520;18.920;2023-09-07T11:27:41;99168.06;;;31.18;25.21
42519;BME280;28147;47.520;18.920;2023-09-07T11:30:07;99164.53;;;32.29;24.54
42519;BME280;28147;47.520;18.920;2023-09-07T11:32:36;99171.44;;;32.38;23.73
42519;BME280;28147;47.520;18.920;2023-09-07T11:35:03;99170.75;;;31.90;24.34
42519;BME280;28147;47.520;18.920;2023-09-07T11:37:33;99167.44;;;32.52;24.97
42519;BME280;28147;47.520;18.920;2023-09-07T11:39:58;99164.31;;;32.02;23.91
42519;BME280;28147;47.520;18.920;2023-09-07T11:42:24;99162.06;;;32.08;23.88
42519;BME280;28147;47.520;18.920;2023-09-07T11:44:49;99165.13;;;32.03;23.28
42519;BME280;28147;47.520;18.920;2023-09-07T11:47:14;99161.81;;;31.81;22.81
42519;BME280;28147;47.520;18.920;2023-09-07T11:49:40;99158.53;;;31.76;22.50
42519;BME280;28147;47.520;18.920;2023-09-07T11:52:05;99155.91;;;31.63;23.38
42519;BME280;28147;47.520;18.920;2023-09-07T11:54:31;99156.66;;;31.48;23.72
42519;BME280;28147;47.520;18.920;2023-09-07T11:56:56;99154.19;;;30.99;24.27
42519;BME280;28147;47.520;18.920;2023-09-07T11:59:21;99152.16;;;30.43;25.76
42519;BME280;28147;47.520;18.920;2023-09-07T12:01:47;99149.59;;;31.03;24.97
42519;BME280;28147;47.520;18.920;2023-09-07T12:04:12;99155.72;;;31.56;24.31
42519;BME280;28147;47.520;18.920;2023-09-07T12:06:38;99156.50;;;31.72;23.94
42519;BME280;28147;47.520;18.920;2023-09-07T12:09:05;99148.50;;;31.83;23.81
42519;BME280;28147;47.520;18.920;2023-09-07T12:11:38;99154.06;;;32.18;24.79
42519;BME280;28147;47.520;18.920;2023-09-07T12:14:03;99153.13;;;31.79;23.42
42519;BME280;28147;47.520;18.920;2023-09-07T12:16:30;99150.72;;;32.09;23.78
42519;BME280;28147;47.520;18.920;2023-09-07T12:18:55;99150.72;;;31.46;23.03
42519;BME280;28147;47.520;18.920;2023-09-07T12:21:21;99144.78;;;31.60;23.48
42519;BME280;28147;47.520;18.920;2023-09-07T12:23:46;99140.97;;;31.05;24.87
42519;BME280;28147;47.520;18.920;2023-09-07T12:26:13;99139.59;;;30.98;24.34
42519;BME280;28147;47.520;18.920;2023-09-07T12:28:46;99144.44;;;31.45;24.83
42519;BME280;28147;47.520;18.920;2023-09-07T12:31:12;99135.25;;;30.69;24.08
42519;BME280;28147;47.520;18.920;2023-09-07T12:33:37;99141.53;;;30.82;24.75
42519;BME280;28147;47.520;18.920;2023-09-07T12:36:03;99136.84;;;30.98;24.96
42519;BME280;28147;47.520;18.920;2023-09-07T12:38:29;99136.97;;;31.02;25.03
42519;BME280;28147;47.520;18.920;2023-09-07T12:40:55;99129.66;;;30.94;24.71
42519;BME280;28147;47.520;18.920;2023-09-07T12:43:20;99134.78;;;31.08;24.11
42519;BME280;28147;47.520;18.920;2023-09-07T12:45:46;99139.25;;;30.72;24.33